createdAt,value
2023-02-22T00:02:29.139Z,6.63
2023-02-22T00:05:20.062Z,7.03
2023-02-22T00:08:11.411Z,6.30
2023-02-22T00:11:02.986Z,6.40
2023-02-22T00:13:50.634Z,6.23
2023-02-22T00:16:37.270Z,6.53
2023-02-22T00:19:23.703Z,5.67
2023-02-22T00:22:09.811Z,6.43
2023-02-22T00:24:57.541Z,7.00
2023-02-22T00:27:44.256Z,6.93
2023-02-22T00:30:31.885Z,6.33
2023-02-22T00:33:18.520Z,5.93
2023-02-22T00:36:05.283Z,6.67
2023-02-22T00:38:51.670Z,5.87
2023-02-22T00:41:38.144Z,5.30
2023-02-22T00:44:24.507Z,7.07
2023-02-22T00:47:11.072Z,6.20
2023-02-22T00:49:57.469Z,6.30
2023-02-22T00:52:44.937Z,6.20
2023-02-22T00:55:33.667Z,7.53
2023-02-22T00:58:20.557Z,7.63
2023-02-22T01:01:06.910Z,7.10
2023-02-22T01:03:53.735Z,6.30
2023-02-22T01:06:40.013Z,6.47
2023-02-22T01:09:26.970Z,5.23
2023-02-22T01:12:13.655Z,5.63
2023-02-22T01:15:00.207Z,5.47
2023-02-22T01:17:46.846Z,5.40
2023-02-22T01:20:33.781Z,6.20
2023-02-22T01:23:21.402Z,6.67
2023-02-22T01:26:07.733Z,4.97
2023-02-22T01:28:54.388Z,5.90
2023-02-22T01:31:44.036Z,4.60
2023-02-22T01:34:32.963Z,6.73
2023-02-22T01:37:19.220Z,5.87
2023-02-22T01:40:09.087Z,5.43
2023-02-22T01:42:58.483Z,5.47
2023-02-22T01:45:53.400Z,6.53
2023-02-22T01:48:44.508Z,6.33
2023-02-22T01:51:37.770Z,6.03
2023-02-22T01:54:31.410Z,6.93
2023-02-22T01:57:21.907Z,7.13
2023-02-22T02:00:16.750Z,6.30
2023-02-22T02:03:11.919Z,5.67
2023-02-22T02:06:00.712Z,7.00
2023-02-22T02:09:00.532Z,5.80
2023-02-22T02:11:47.490Z,5.77
2023-02-22T02:14:33.821Z,7.03
2023-02-22T02:17:22.914Z,6.57
2023-02-22T02:20:27.661Z,7.20
2023-02-22T02:23:41.167Z,7.07
2023-02-22T02:27:05.392Z,6.20
2023-02-22T02:30:45.741Z,6.40
2023-02-22T02:33:34.796Z,6.93
2023-02-22T02:36:33.198Z,7.63
2023-02-22T02:39:29.020Z,6.73
2023-02-22T02:42:22.153Z,7.00
2023-02-22T02:45:14.425Z,6.70
2023-02-22T02:48:05.476Z,6.63
2023-02-22T02:50:54.709Z,7.07
2023-02-22T02:53:45.495Z,7.00
2023-02-22T02:56:31.628Z,6.77
2023-02-22T02:59:35.122Z,6.33
2023-02-22T03:02:59.544Z,7.17
2023-02-22T03:06:01.958Z,6.70
2023-02-22T03:09:23.939Z,5.90
2023-02-22T03:12:27.609Z,6.53
2023-02-22T03:15:21.936Z,6.73
2023-02-22T03:18:32.018Z,5.43
2023-02-22T03:21:31.190Z,6.37
2023-02-22T03:24:32.855Z,7.17
2023-02-22T03:27:34.643Z,6.57
2023-02-22T03:30:27.625Z,7.77
2023-02-22T03:33:22.239Z,7.93
2023-02-22T03:36:21.426Z,6.00
2023-02-22T03:39:15.987Z,7.30
2023-02-22T03:42:11.915Z,7.33
2023-02-22T03:45:04.514Z,6.47
2023-02-22T03:48:11.497Z,6.33
2023-02-22T03:50:58.504Z,5.43
2023-02-22T03:53:45.552Z,6.97
2023-02-22T03:56:37.135Z,7.47
2023-02-22T03:59:27.612Z,6.63
2023-02-22T04:02:14.136Z,6.73
2023-02-22T04:05:00.799Z,7.13
2023-02-22T04:07:47.646Z,6.37
2023-02-22T04:10:37.888Z,6.23
2023-02-22T04:13:24.082Z,7.70
2023-02-22T04:16:13.464Z,7.93
2023-02-22T04:19:00.391Z,7.33
2023-02-22T04:21:47.233Z,6.87
2023-02-22T04:24:40.271Z,6.77
2023-02-22T04:27:26.703Z,7.33
2023-02-22T04:30:20.605Z,6.80
2023-02-22T04:33:07.760Z,7.37
2023-02-22T04:35:57.715Z,6.90
2023-02-22T04:38:44.485Z,8.07
2023-02-22T04:41:31.732Z,7.50
2023-02-22T04:44:17.876Z,6.10
2023-02-22T04:47:04.270Z,6.87
2023-02-22T04:49:51.049Z,5.00
2023-02-22T04:52:39.012Z,4.93
2023-02-22T04:55:25.331Z,5.10
2023-02-22T04:58:11.806Z,4.67
2023-02-22T05:01:01.014Z,4.50
2023-02-22T05:03:48.988Z,5.70
2023-02-22T05:06:35.193Z,5.37
2023-02-22T05:09:21.483Z,4.90
2023-02-22T05:12:07.965Z,5.90
2023-02-22T05:14:54.289Z,6.07
2023-02-22T05:17:40.466Z,6.67
2023-02-22T05:20:29.584Z,6.00
2023-02-22T05:23:16.137Z,6.27
2023-02-22T05:26:02.548Z,6.17
2023-02-22T05:28:48.703Z,6.13
2023-02-22T05:31:35.118Z,6.37
2023-02-22T05:34:21.420Z,5.97
2023-02-22T05:37:07.724Z,6.40
2023-02-22T05:39:55.630Z,6.83
2023-02-22T05:42:42.107Z,7.70
2023-02-22T05:45:28.992Z,8.93
2023-02-22T05:48:15.216Z,9.07
2023-02-22T05:51:01.709Z,6.93
2023-02-22T05:53:48.168Z,6.30
2023-02-22T05:56:34.334Z,6.50
2023-02-22T05:59:20.865Z,6.57
2023-02-22T06:02:08.422Z,5.77
2023-02-22T06:04:54.811Z,6.57
2023-02-22T06:07:41.024Z,7.20
2023-02-22T06:10:27.851Z,11.27
2023-02-22T06:13:14.328Z,8.97
2023-02-22T06:16:00.683Z,10.03
2023-02-22T06:18:47.566Z,8.43
2023-02-22T06:21:33.866Z,8.80
2023-02-22T06:24:20.856Z,8.57
2023-02-22T06:27:08.222Z,9.43
2023-02-22T06:29:54.325Z,10.30
2023-02-22T06:32:40.761Z,7.93
2023-02-22T06:35:27.370Z,8.17
2023-02-22T06:38:22.263Z,8.73
2023-02-22T06:41:09.773Z,6.83
2023-02-22T06:43:55.949Z,7.40
2023-02-22T06:46:48.181Z,6.37
2023-02-22T06:49:34.620Z,6.90
2023-02-22T06:52:20.975Z,6.17
2023-02-22T06:55:07.455Z,7.00
2023-02-22T06:57:53.800Z,7.27
2023-02-22T07:00:40.169Z,6.67
2023-02-22T07:03:26.546Z,9.63
2023-02-22T07:06:12.818Z,8.33
2023-02-22T07:08:59.665Z,11.20
2023-02-22T07:11:45.829Z,9.10
2023-02-22T07:14:32.129Z,6.60
2023-02-22T07:17:18.695Z,7.10
2023-02-22T07:20:05.215Z,7.60
2023-02-22T07:22:52.239Z,7.87
2023-02-22T07:25:38.703Z,6.40
2023-02-22T07:28:25.260Z,8.77
2023-02-22T07:31:11.596Z,8.30
2023-02-22T07:33:57.766Z,7.80
2023-02-22T07:36:44.258Z,6.57
2023-02-22T07:39:31.244Z,7.07
2023-02-22T07:42:17.692Z,6.67
2023-02-22T07:45:05.749Z,6.80
2023-02-22T07:47:52.529Z,7.27
2023-02-22T07:50:39.860Z,6.57
2023-02-22T07:53:33.384Z,9.30
2023-02-22T07:56:19.378Z,6.53
2023-02-22T07:59:05.773Z,5.23
2023-02-22T08:01:52.113Z,6.57
2023-02-22T08:04:39.423Z,6.63
2023-02-22T08:07:25.691Z,6.97
2023-02-22T08:10:14.597Z,6.30
2023-02-22T08:13:01.585Z,5.73
2023-02-22T08:15:49.922Z,5.77
2023-02-22T08:18:38.464Z,5.30
2023-02-22T08:21:24.891Z,6.43
2023-02-22T08:24:11.317Z,6.30
2023-02-22T08:26:57.517Z,6.03
2023-02-22T08:29:44.115Z,5.70
2023-02-22T08:32:30.721Z,5.47
2023-02-22T08:35:20.562Z,6.90
2023-02-22T08:38:08.350Z,6.13
2023-02-22T08:40:55.004Z,5.57
2023-02-22T08:43:41.136Z,5.70
2023-02-22T08:46:27.469Z,7.10
2023-02-22T08:49:13.888Z,5.60
2023-02-22T08:52:00.759Z,7.50
2023-02-22T08:54:48.160Z,5.90
2023-02-22T08:57:34.509Z,6.10
2023-02-22T09:00:24.675Z,7.73
2023-02-22T09:03:13.979Z,6.57
2023-02-22T09:06:00.815Z,6.13
2023-02-22T09:08:47.326Z,6.33
2023-02-22T09:11:33.850Z,6.17
2023-02-22T09:14:20.044Z,6.30
2023-02-22T09:17:06.547Z,5.57
2023-02-22T09:19:52.860Z,5.43
2023-02-22T09:22:40.464Z,6.30
2023-02-22T09:25:27.174Z,5.47
2023-02-22T09:28:13.415Z,4.60
2023-02-22T09:30:59.780Z,6.00
2023-02-22T09:33:47.511Z,5.17
2023-02-22T09:36:33.967Z,5.23
2023-02-22T09:39:21.876Z,5.07
2023-02-22T09:42:28.550Z,5.17
2023-02-22T09:45:27.834Z,4.70
2023-02-22T09:48:22.068Z,5.00
2023-02-22T09:51:15.479Z,5.03
2023-02-22T09:54:04.707Z,5.50
2023-02-22T09:56:55.410Z,4.87
2023-02-22T10:00:13.225Z,4.90
2023-02-22T10:03:26.041Z,5.10
2023-02-22T10:06:15.563Z,5.27
2023-02-22T10:09:07.972Z,5.33
2023-02-22T10:12:23.644Z,6.10
2023-02-22T10:15:28.400Z,4.83
2023-02-22T10:18:54.920Z,5.60
2023-02-22T10:22:18.529Z,5.40
2023-02-22T10:25:12.707Z,4.50
2023-02-22T10:28:05.912Z,5.33
2023-02-22T10:31:01.993Z,5.53
2023-02-22T10:33:52.820Z,5.00
2023-02-22T10:36:39.365Z,5.27
2023-02-22T10:39:31.064Z,5.73
2023-02-22T10:42:17.513Z,4.33
2023-02-22T10:45:05.029Z,5.07
2023-02-22T10:47:55.694Z,4.97
2023-02-22T10:50:45.649Z,5.03
2023-02-22T10:53:33.146Z,4.77
2023-02-22T10:56:24.243Z,4.63
2023-02-22T10:59:10.479Z,4.70
2023-02-22T11:01:57.492Z,5.00
2023-02-22T11:04:55.955Z,5.23
2023-02-22T11:07:42.655Z,5.20
2023-02-22T11:10:37.816Z,4.97
2023-02-22T11:13:32.365Z,4.50
2023-02-22T11:16:21.394Z,4.80
2023-02-22T11:19:29.772Z,5.57
2023-02-22T11:22:30.823Z,5.10
2023-02-22T11:25:25.968Z,6.00
2023-02-22T11:28:35.822Z,5.40
2023-02-22T11:31:25.749Z,5.00
2023-02-22T11:34:34.281Z,5.07
2023-02-22T11:37:32.395Z,5.27
2023-02-22T11:40:22.950Z,5.23
2023-02-22T11:43:20.296Z,5.70
2023-02-22T11:46:09.841Z,5.77
2023-02-22T11:48:58.265Z,5.23
2023-02-22T11:52:09.862Z,5.30
2023-02-22T11:55:32.752Z,7.23
2023-02-22T11:58:53.719Z,6.00
2023-02-22T12:01:52.056Z,5.50
2023-02-22T12:05:10.764Z,5.87
2023-02-22T12:08:19.862Z,5.87
2023-02-22T12:11:12.789Z,5.60
2023-02-22T12:14:26.589Z,6.17
2023-02-22T12:18:00.171Z,6.57
2023-02-22T12:20:56.655Z,6.17
2023-02-22T12:23:50.828Z,7.13
2023-02-22T12:26:48.910Z,5.47
2023-02-22T12:30:03.477Z,6.07
2023-02-22T12:32:53.740Z,5.83
2023-02-22T12:35:46.161Z,5.83
2023-02-22T12:38:39.554Z,6.20
2023-02-22T12:41:40.356Z,6.23
2023-02-22T12:44:35.671Z,5.80
2023-02-22T12:47:30.240Z,7.13
2023-02-22T12:50:29.677Z,6.10
2023-02-22T12:53:38.199Z,6.50
2023-02-22T12:56:43.729Z,5.83
2023-02-22T12:59:38.775Z,6.00
2023-02-22T13:02:34.942Z,6.00
2023-02-22T13:05:21.408Z,6.13
2023-02-22T13:08:21.169Z,5.37
2023-02-22T13:11:24.797Z,6.33
2023-02-22T13:14:40.083Z,6.40
2023-02-22T13:17:46.105Z,6.67
2023-02-22T13:21:01.518Z,5.37
2023-02-22T13:24:05.791Z,5.73
2023-02-22T13:26:59.157Z,5.17
2023-02-22T13:29:50.229Z,5.83
2023-02-22T13:32:54.983Z,5.27
2023-02-22T13:36:06.661Z,5.80
2023-02-22T13:39:19.348Z,5.70
2023-02-22T13:42:27.157Z,5.00
2023-02-22T13:45:28.587Z,4.63
2023-02-22T13:48:36.808Z,3.93
2023-02-22T13:51:51.608Z,5.03
2023-02-22T13:54:54.354Z,5.40
2023-02-22T13:57:51.673Z,5.37
2023-02-22T14:00:55.978Z,4.57
2023-02-22T14:03:42.379Z,4.87
2023-02-22T14:06:41.555Z,5.00
2023-02-22T14:09:56.455Z,5.43
2023-02-22T14:12:48.380Z,4.57
2023-02-22T14:15:35.552Z,5.37
2023-02-22T14:18:22.081Z,4.90
2023-02-22T14:21:14.380Z,4.73
2023-02-22T14:24:15.412Z,5.00
2023-02-22T14:27:04.083Z,5.47
2023-02-22T14:30:00.526Z,5.10
2023-02-22T14:32:49.174Z,5.20
2023-02-22T14:35:49.550Z,5.87
2023-02-22T14:38:36.304Z,4.80
2023-02-22T14:41:27.724Z,4.97
2023-02-22T14:44:20.340Z,4.33
2023-02-22T14:47:13.820Z,5.30
2023-02-22T14:50:13.971Z,4.80
2023-02-22T14:53:02.665Z,4.20
2023-02-22T14:55:58.235Z,5.73
2023-02-22T14:58:55.075Z,5.57
2023-02-22T15:02:09.801Z,5.10
2023-02-22T15:04:53.182Z,5.23
2023-02-22T15:07:39.838Z,5.40
2023-02-22T15:10:29.012Z,6.07
2023-02-22T15:13:18.572Z,5.63
2023-02-22T15:16:08.752Z,6.47
2023-02-22T15:18:59.122Z,9.37
2023-02-22T15:21:46.655Z,8.37
2023-02-22T15:24:35.146Z,6.13
2023-02-22T15:27:22.073Z,6.83
2023-02-22T15:30:15.815Z,4.67
2023-02-22T15:33:24.659Z,5.30
2023-02-22T15:36:18.790Z,5.37
2023-02-22T15:39:08.773Z,5.53
2023-02-22T15:42:09.008Z,7.13
2023-02-22T15:44:56.582Z,9.10
2023-02-22T15:47:43.381Z,7.93
2023-02-22T15:50:34.744Z,7.57
2023-02-22T15:53:21.016Z,5.90
2023-02-22T15:56:29.943Z,5.67
2023-02-22T15:59:22.553Z,5.90
2023-02-22T16:02:31.543Z,7.03
2023-02-22T16:05:19.023Z,7.40
2023-02-22T16:08:15.863Z,6.63
2023-02-22T16:11:06.230Z,5.97
2023-02-22T16:13:54.295Z,6.70
2023-02-22T16:16:41.479Z,5.77
2023-02-22T16:19:45.023Z,6.10
2023-02-22T16:22:34.892Z,7.03
2023-02-22T16:25:28.972Z,6.80
2023-02-22T16:28:36.148Z,7.07
2023-02-22T16:31:34.302Z,7.10
2023-02-22T16:34:20.583Z,6.70
2023-02-22T16:37:22.126Z,7.07
2023-02-22T16:40:22.449Z,9.67
2023-02-22T16:43:14.937Z,11.53
2023-02-22T16:46:03.501Z,8.50
2023-02-22T16:48:49.693Z,8.70
2023-02-22T16:51:43.935Z,19.00
2023-02-22T16:54:36.402Z,17.43
2023-02-22T16:57:24.373Z,12.13
2023-02-22T17:00:31.355Z,7.93
2023-02-22T17:03:18.655Z,6.53
2023-02-22T17:06:05.237Z,6.20
2023-02-22T17:08:52.476Z,8.00
2023-02-22T17:11:39.122Z,8.80
2023-02-22T17:14:31.044Z,8.27
2023-02-22T17:17:17.607Z,8.83
2023-02-22T17:20:11.255Z,9.03
2023-02-22T17:22:59.586Z,12.10
2023-02-22T17:25:55.314Z,10.20
2023-02-22T17:28:43.781Z,9.87
2023-02-22T17:31:31.201Z,8.83
2023-02-22T17:34:17.855Z,11.03
2023-02-22T17:37:04.853Z,9.83
2023-02-22T17:39:51.099Z,10.60
2023-02-22T17:42:37.475Z,10.50
2023-02-22T17:45:24.872Z,13.17
2023-02-22T17:48:12.150Z,12.67
2023-02-22T17:50:58.428Z,12.63
2023-02-22T17:53:45.099Z,10.87
2023-02-22T17:56:31.380Z,9.73
2023-02-22T17:59:17.779Z,9.80
2023-02-22T18:02:04.382Z,7.63
2023-02-22T18:04:50.684Z,7.10
2023-02-22T18:07:37.469Z,8.20
2023-02-22T18:10:26.426Z,8.77
2023-02-22T18:13:16.685Z,8.77
2023-02-22T18:16:05.590Z,9.30
2023-02-22T18:18:52.510Z,7.30
2023-02-22T18:21:39.048Z,7.70
2023-02-22T18:24:26.573Z,7.97
2023-02-22T18:27:14.687Z,7.20
2023-02-22T18:30:01.243Z,8.70
2023-02-22T18:32:47.610Z,7.63
2023-02-22T18:35:33.875Z,8.40
2023-02-22T18:38:24.176Z,8.50
2023-02-22T18:41:12.921Z,8.40
2023-02-22T18:44:00.449Z,8.57
2023-02-22T18:46:46.773Z,7.57
2023-02-22T18:49:33.108Z,8.63
2023-02-22T18:52:19.533Z,9.13
2023-02-22T18:55:08.669Z,8.77
2023-02-22T18:57:55.664Z,10.73
2023-02-22T19:00:41.856Z,7.97
2023-02-22T19:03:29.517Z,9.10
2023-02-22T19:06:18.014Z,8.93
2023-02-22T19:09:08.698Z,9.67
2023-02-22T19:11:55.536Z,8.23
2023-02-22T19:14:42.475Z,9.93
2023-02-22T19:17:31.097Z,10.50
2023-02-22T19:20:17.535Z,10.37
2023-02-22T19:23:04.092Z,11.30
2023-02-22T19:25:50.268Z,9.27
2023-02-22T19:28:36.601Z,10.37
2023-02-22T19:31:26.314Z,9.00
2023-02-22T19:34:14.574Z,9.77
2023-02-22T19:37:00.949Z,10.83
2023-02-22T19:39:47.179Z,10.63
2023-02-22T19:42:33.609Z,11.50
2023-02-22T19:45:20.591Z,10.73
2023-02-22T19:48:07.189Z,11.90
2023-02-22T19:50:57.755Z,11.07
2023-02-22T19:53:45.771Z,10.20
2023-02-22T19:56:35.151Z,10.50
2023-02-22T19:59:23.079Z,11.07
2023-02-22T20:02:10.981Z,12.47
2023-02-22T20:04:57.428Z,13.17
2023-02-22T20:07:44.083Z,15.73
2023-02-22T20:10:30.567Z,13.30
2023-02-22T20:13:17.041Z,14.13
2023-02-22T20:16:03.835Z,12.27
2023-02-22T20:18:50.814Z,14.10
2023-02-22T20:21:37.110Z,13.30
2023-02-22T20:24:24.091Z,14.57
2023-02-22T20:27:10.176Z,13.00
2023-02-22T20:29:56.446Z,12.40
2023-02-22T20:32:42.944Z,12.73
2023-02-22T20:35:29.347Z,14.00
2023-02-22T20:38:15.928Z,11.73
2023-02-22T20:41:06.648Z,12.00
2023-02-22T20:43:55.136Z,11.83
2023-02-22T20:46:42.859Z,11.40
2023-02-22T20:49:29.513Z,12.00
2023-02-22T20:52:15.636Z,11.93
2023-02-22T20:55:04.118Z,12.00
2023-02-22T20:57:50.639Z,11.20
2023-02-22T21:00:37.266Z,12.23
2023-02-22T21:03:23.455Z,13.03
2023-02-22T21:06:17.568Z,12.37
2023-02-22T21:09:08.759Z,13.23
2023-02-22T21:11:55.280Z,13.43
2023-02-22T21:14:44.135Z,13.27
2023-02-22T21:17:30.814Z,14.70
2023-02-22T21:20:21.732Z,12.73
2023-02-22T21:23:09.405Z,14.70
2023-02-22T21:25:56.951Z,12.07
2023-02-22T21:28:51.935Z,12.03
2023-02-22T21:31:38.395Z,13.37
2023-02-22T21:34:25.774Z,12.13
2023-02-22T21:37:12.414Z,13.27
2023-02-22T21:39:59.032Z,13.17
2023-02-22T21:42:49.272Z,12.97
2023-02-22T21:45:35.677Z,11.93
2023-02-22T21:48:21.925Z,12.60
2023-02-22T21:51:13.802Z,13.00
2023-02-22T21:54:03.377Z,13.27
2023-02-22T21:56:50.037Z,13.83
2023-02-22T21:59:36.419Z,14.43
2023-02-22T22:02:22.974Z,11.60
2023-02-22T22:05:09.276Z,13.00
2023-02-22T22:07:55.871Z,13.03
2023-02-22T22:10:42.244Z,11.60
2023-02-22T22:13:28.592Z,14.03
2023-02-22T22:16:18.484Z,11.80
2023-02-22T22:19:05.025Z,12.10
2023-02-22T22:21:53.853Z,13.27
2023-02-22T22:24:45.447Z,12.07
2023-02-22T22:27:32.466Z,13.23
2023-02-22T22:30:18.905Z,12.57
2023-02-22T22:33:11.256Z,14.53
2023-02-22T22:35:58.094Z,13.47
2023-02-22T22:38:47.010Z,11.40
2023-02-22T22:41:33.831Z,12.93
2023-02-22T22:44:22.443Z,14.37
2023-02-22T22:47:12.346Z,13.30
2023-02-22T22:50:01.474Z,12.00
2023-02-22T22:52:48.982Z,13.30
2023-02-22T22:55:40.683Z,11.23
2023-02-22T22:58:27.036Z,11.73
2023-02-22T23:01:19.287Z,11.90
2023-02-22T23:04:12.315Z,12.80
2023-02-22T23:06:58.882Z,12.47
2023-02-22T23:09:45.565Z,13.03
2023-02-22T23:12:32.075Z,12.07
2023-02-22T23:15:18.502Z,11.57
2023-02-22T23:18:07.443Z,13.03
2023-02-22T23:20:56.924Z,12.30
2023-02-22T23:23:44.235Z,11.23
2023-02-22T23:26:30.737Z,11.97
2023-02-22T23:29:18.879Z,12.20
2023-02-22T23:32:06.453Z,12.33
2023-02-22T23:34:53.117Z,12.17
2023-02-22T23:37:39.919Z,12.63
2023-02-22T23:40:27.157Z,14.00
2023-02-22T23:43:16.859Z,11.90
2023-02-22T23:46:10.767Z,12.33
2023-02-22T23:49:01.629Z,12.20
2023-02-22T23:51:49.288Z,13.03
2023-02-22T23:54:40.340Z,12.43
2023-02-22T23:57:27.180Z,13.07
